Time;durP1;ratioP1;P1;durP2;ratioP2;P2;SDS_P1;SDS_P2;PMS_P1;PMS_P2;Temp;Humidity;BMP_temperature;BMP_pressure;BME280_temperature;BME280_humidity;BME280_pressure;Samples;Min_cycle;Max_cycle;Signal;HPM_P1;HPM_P2
2023/02/18 00:01:39;;;;;;;2.53;1.60;;;11.20;99.90;;;;;;4946623;28;20070;-77
2023/02/18 00:04:06;;;;;;;2.80;1.92;;;11.00;99.90;;;;;;4945801;29;20900;-77
2023/02/18 00:06:35;;;;;;;1.00;1.00;;;11.00;99.90;;;;;;4945800;28;20483;-76
2023/02/18 00:09:04;;;;;;;4.53;1.95;;;11.00;99.90;;;;;;4928414;29;20054;-77
2023/02/18 00:11:34;;;;;;;3.95;2.15;;;11.00;99.90;;;;;;4930476;29;20051;-76
2023/02/18 00:14:05;;;;;;;2.03;1.42;;;11.00;99.90;;;;;;4940387;28;20431;-76
2023/02/18 00:16:33;;;;;;;;;;;10.90;99.90;;;;;;4930381;29;20058;-76
2023/02/18 00:19:05;;;;;;;1.23;1.13;;;11.00;99.90;;;;;;4944904;29;19926;-76
2023/02/18 00:21:36;;;;;;;2.58;2.38;;;10.80;99.90;;;;;;4943180;29;20047;-76
2023/02/18 00:24:05;;;;;;;1.58;1.13;;;10.90;99.90;;;;;;4945264;29;20062;-77
2023/02/18 00:26:34;;;;;;;2.40;2.17;;;11.00;99.90;;;;;;4912506;29;20436;-77
2023/02/18 00:29:02;;;;;;;5.28;1.77;;;10.90;99.90;;;;;;4925332;29;20047;-76
2023/02/18 00:31:32;;;;;;;2.05;1.90;;;11.00;99.90;;;;;;4923369;29;20070;-76
2023/02/18 00:34:02;;;;;;;;;;;10.90;99.90;;;;;;4943354;29;20063;-76
2023/02/18 00:36:30;;;;;;;2.60;1.80;;;10.90;99.90;;;;;;4946212;28;19926;-76
2023/02/18 00:39:02;;;;;;;2.80;2.50;;;10.90;99.90;;;;;;4928058;29;20432;-76
2023/02/18 00:41:33;;;;;;;1.90;1.75;;;10.80;99.90;;;;;;4914912;29;20043;-76
2023/02/18 00:44:01;;;;;;;2.88;2.08;;;10.80;99.90;;;;;;4927573;29;20408;-75
2023/02/18 00:46:29;;;;;;;2.55;1.85;;;10.80;99.90;;;;;;4934923;29;20058;-75
2023/02/18 00:48:57;;;;;;;5.25;2.75;;;10.70;99.90;;;;;;4928754;29;20050;-74
2023/02/18 00:51:24;;;;;;;3.53;2.00;;;10.70;99.90;;;;;;4914534;29;20427;-76
2023/02/18 00:53:52;;;;;;;2.95;2.20;;;10.80;99.90;;;;;;4911816;29;20051;-76
2023/02/18 00:56:22;;;;;;;2.17;1.80;;;10.70;99.90;;;;;;4929125;29;20046;-76
2023/02/18 00:58:51;;;;;;;1.77;1.67;;;10.70;99.90;;;;;;4912772;29;20503;-75
2023/02/18 01:01:19;;;;;;;2.38;2.17;;;10.70;99.90;;;;;;4951490;28;20055;-76
2023/02/18 01:03:47;;;;;;;1.90;1.80;;;10.60;99.90;;;;;;4934888;28;20066;-76
2023/02/18 01:06:18;;;;;;;2.55;1.73;;;10.50;99.90;;;;;;4930170;29;20051;-76
2023/02/18 01:08:48;;;;;;;1.60;1.50;;;10.50;99.90;;;;;;4921859;29;20062;-76
2023/02/18 01:11:15;;;;;;;1.77;1.50;;;10.70;99.90;;;;;;4946613;29;20082;-76
2023/02/18 01:13:44;;;;;;;2.35;1.63;;;10.70;99.90;;;;;;4944923;29;20054;-75
2023/02/18 01:16:11;;;;;;;2.00;1.20;;;10.70;99.90;;;;;;4945183;29;20054;-76
2023/02/18 01:18:39;;;;;;;2.20;1.38;;;10.70;99.90;;;;;;4929080;29;20504;-76
2023/02/18 01:21:07;;;;;;;1.95;1.83;;;10.50;99.90;;;;;;4926034;29;20039;-76
2023/02/18 01:23:37;;;;;;;1.85;1.48;;;10.50;99.90;;;;;;4930822;29;20050;-76
2023/02/18 01:26:06;;;;;;;1.45;1.35;;;10.50;99.90;;;;;;4946150;28;20407;-76
2023/02/18 01:28:36;;;;;;;2.15;1.73;;;10.40;99.90;;;;;;4934773;29;20448;-76
2023/02/18 01:31:08;;;;;;;1.33;1.23;;;10.40;99.90;;;;;;4931240;29;20420;-76
2023/02/18 01:33:36;;;;;;;1.08;1.08;;;10.50;99.90;;;;;;4950894;28;20308;-76
2023/02/18 01:36:05;;;;;;;2.75;1.63;;;10.40;99.90;;;;;;4929708;29;20056;-76
2023/02/18 01:38:34;;;;;;;5.85;1.85;;;10.40;99.90;;;;;;4929686;29;20044;-76
2023/02/18 01:41:02;;;;;;;2.22;2.03;;;10.40;99.90;;;;;;4944258;28;20420;-75
2023/02/18 01:43:30;;;;;;;1.40;1.17;;;10.50;99.90;;;;;;4930003;29;20051;-76
2023/02/18 01:45:59;;;;;;;1.67;1.52;;;10.50;99.90;;;;;;4930114;29;20653;-76
2023/02/18 01:48:37;;;;;;;1.42;1.33;;;10.40;99.90;;;;;;4944561;28;20455;-76
2023/02/18 01:51:09;;;;;;;2.50;1.45;;;10.40;99.90;;;;;;4947147;29;20056;-76
2023/02/18 01:53:45;;;;;;;1.02;1.02;;;10.30;99.90;;;;;;4912295;29;20035;-76
2023/02/18 01:56:26;;;;;;;1.65;1.30;;;10.30;99.90;;;;;;4931206;29;20051;-76
2023/02/18 01:59:00;;;;;;;1.45;1.35;;;10.20;99.90;;;;;;4931317;29;20333;-76
2023/02/18 02:01:28;;;;;;;1.83;1.60;;;10.10;99.90;;;;;;4947772;28;20050;-76
2023/02/18 02:03:55;;;;;;;6.13;3.47;;;10.30;99.90;;;;;;4951608;29;20047;-75
2023/02/18 02:06:23;;;;;;;1.75;1.60;;;10.40;99.90;;;;;;4933473;28;20043;-76
2023/02/18 02:08:56;;;;;;;1.80;1.52;;;10.40;99.90;;;;;;4949205;29;20043;-76
2023/02/18 02:11:36;;;;;;;2.35;1.80;;;10.30;99.90;;;;;;4931118;29;20382;-76
2023/02/18 02:14:21;;;;;;;2.42;1.20;;;10.30;99.90;;;;;;4951033;28;20058;-76
2023/02/18 02:17:16;;;;;;;2.35;1.55;;;10.30;99.90;;;;;;4950998;29;20039;-76
2023/02/18 02:20:00;;;;;;;1.73;1.45;;;10.30;99.90;;;;;;4924362;29;20050;-76
2023/02/18 02:22:46;;;;;;;1.60;1.50;;;10.30;99.90;;;;;;4956126;28;20047;-76
2023/02/18 02:25:39;;;;;;;2.50;2.30;;;10.30;99.90;;;;;;4940232;29;20039;-76
2023/02/18 02:28:31;;;;;;;5.65;2.15;;;10.30;99.90;;;;;;4939146;29;20062;-76
2023/02/18 02:31:17;;;;;;;2.25;2.05;;;10.30;99.90;;;;;;4938898;29;20058;-76
2023/02/18 02:33:51;;;;;;;3.97;1.48;;;10.50;99.90;;;;;;4955978;29;20044;-76
2023/02/18 02:36:27;;;;;;;5.72;1.52;;;10.30;99.90;;;;;;4939662;29;20126;-76
2023/02/18 02:38:59;;;;;;;1.48;1.42;;;10.20;99.90;;;;;;4955461;29;20055;-76
2023/02/18 02:41:40;;;;;;;1.63;1.52;;;10.30;99.90;;;;;;4938882;29;20039;-76
2023/02/18 02:44:35;;;;;;;3.58;1.58;;;10.40;99.90;;;;;;4940350;29;20047;-76
2023/02/18 02:47:57;;;;;;;2.58;1.58;;;10.60;99.90;;;;;;4926218;29;20048;-76
2023/02/18 02:51:31;;;;;;;1.15;1.05;;;10.60;99.90;;;;;;4916042;29;20044;-76
2023/02/18 02:54:23;;;;;;;1.27;1.00;;;10.60;99.90;;;;;;4938317;29;20047;-76
2023/02/18 02:57:25;;;;;;;2.35;1.88;;;10.60;99.90;;;;;;4938723;29;20046;-76
2023/02/18 03:00:16;;;;;;;1.42;1.33;;;10.60;99.90;;;;;;4923587;29;20056;-76
2023/02/18 03:03:13;;;;;;;1.35;1.25;;;10.50;99.90;;;;;;4939145;29;20050;-76
2023/02/18 03:06:10;;;;;;;1.92;1.52;;;10.60;99.90;;;;;;4938146;28;20412;-75
2023/02/18 03:09:02;;;;;;;1.20;1.10;;;10.70;99.90;;;;;;4963911;28;20073;-76
2023/02/18 03:11:37;;;;;;;1.10;1.10;;;10.80;99.90;;;;;;4959920;28;20059;-76
2023/02/18 03:14:27;;;;;;;3.88;1.27;;;10.70;99.90;;;;;;4938015;29;20062;-76
2023/02/18 03:17:08;;;;;;;1.52;1.42;;;10.70;99.90;;;;;;4958238;29;20140;-77
2023/02/18 03:19:48;;;;;;;7.45;1.63;;;10.70;99.90;;;;;;4954712;29;20052;-77
2023/02/18 03:22:25;;;;;;;2.67;1.35;;;10.50;99.90;;;;;;4957050;28;20053;-76
2023/02/18 03:24:55;;;;;;;2.25;1.23;;;10.60;99.90;;;;;;4951619;28;20066;-78
2023/02/18 03:27:36;;;;;;;1.90;1.80;;;10.70;99.90;;;;;;4959569;28;20069;-77
2023/02/18 03:30:22;;;;;;;1.15;1.15;;;10.60;99.90;;;;;;4954916;28;20055;-77
2023/02/18 03:32:56;;;;;;;1.35;1.17;;;10.60;99.90;;;;;;4950604;28;20043;-77
2023/02/18 03:35:26;;;;;;;1.65;1.45;;;10.60;99.90;;;;;;4957736;28;20038;-76
2023/02/18 03:38:19;;;;;;;1.15;1.15;;;10.60;99.90;;;;;;4958733;28;20051;-77
2023/02/18 03:40:47;;;;;;;1.52;1.30;;;10.70;99.90;;;;;;4934961;28;20038;-77
2023/02/18 03:43:15;;;;;;;1.20;1.10;;;10.70;99.90;;;;;;4942324;28;20054;-77
2023/02/18 03:45:46;;;;;;;3.38;1.08;;;10.70;99.90;;;;;;4959048;28;20035;-76
2023/02/18 03:48:13;;;;;;;0.95;0.90;;;10.70;99.90;;;;;;4960142;28;20042;-77
2023/02/18 03:50:42;;;;;;;2.47;1.33;;;10.70;99.90;;;;;;4952153;28;20034;-76
2023/02/18 03:53:10;;;;;;;1.85;0.90;;;10.70;99.90;;;;;;4976866;28;20181;-77
2023/02/18 03:55:38;;;;;;;1.25;1.15;;;10.60;99.90;;;;;;4973205;28;20039;-76
2023/02/18 03:58:06;;;;;;;1.35;1.05;;;10.50;99.90;;;;;;4972325;28;20054;-76
2023/02/18 04:00:34;;;;;;;2.35;1.17;;;10.60;99.90;;;;;;4970862;28;20285;-77
2023/02/18 04:03:03;;;;;;;2.42;1.80;;;10.50;99.90;;;;;;4959894;28;20035;-77
2023/02/18 04:05:31;;;;;;;0.98;0.98;;;10.60;99.90;;;;;;4955067;28;20041;-76
2023/02/18 04:07:58;;;;;;;1.30;1.30;;;10.50;99.90;;;;;;4971331;28;20057;-77
2023/02/18 04:10:26;;;;;;;1.10;1.10;;;10.40;99.90;;;;;;4974139;28;20057;-76
2023/02/18 04:12:53;;;;;;;0.98;0.98;;;10.40;99.90;;;;;;4956118;28;20043;-77
2023/02/18 04:15:21;;;;;;;1.67;1.58;;;10.40;99.90;;;;;;4959045;28;20042;-76
2023/02/18 04:17:49;;;;;;;1.45;1.35;;;10.40;99.90;;;;;;4973852;28;20740;-76
2023/02/18 04:20:18;;;;;;;1.65;1.42;;;10.50;99.90;;;;;;4962309;28;20047;-77
2023/02/18 04:22:45;;;;;;;1.33;1.20;;;10.50;99.90;;;;;;4970740;28;20042;-77
2023/02/18 04:25:13;;;;;;;1.02;1.02;;;10.40;99.90;;;;;;4957295;28;20028;-77
2023/02/18 04:27:40;;;;;;;1.90;1.80;;;10.40;99.90;;;;;;4956234;28;20715;-77
2023/02/18 04:30:09;;;;;;;2.90;2.10;;;10.50;99.90;;;;;;4930823;29;20055;-76
2023/02/18 04:32:37;;;;;;;1.13;1.05;;;10.50;99.90;;;;;;4941178;29;20082;-77
2023/02/18 04:35:05;;;;;;;1.48;1.38;;;10.50;99.90;;;;;;4942589;29;20420;-76
2023/02/18 04:37:33;;;;;;;1.88;1.10;;;10.50;99.90;;;;;;4946610;28;20463;-76
2023/02/18 04:40:00;;;;;;;2.85;0.98;;;10.50;99.90;;;;;;4929583;29;20051;-77
2023/02/18 04:42:28;;;;;;;1.60;1.48;;;10.50;99.90;;;;;;4944825;29;20058;-76
2023/02/18 04:44:55;;;;;;;1.65;1.55;;;10.50;99.90;;;;;;4931646;29;20047;-77
2023/02/18 04:47:23;;;;;;;1.50;1.40;;;10.40;99.90;;;;;;4930739;29;20096;-76
2023/02/18 04:49:51;;;;;;;1.50;1.40;;;10.40;99.90;;;;;;4945492;29;20055;-76
2023/02/18 04:52:18;;;;;;;1.42;1.33;;;10.30;99.90;;;;;;4946677;29;20059;-77
2023/02/18 04:54:47;;;;;;;1.63;1.33;;;10.40;99.90;;;;;;4945317;28;20412;-77
2023/02/18 04:57:15;;;;;;;0.95;0.90;;;10.30;99.90;;;;;;4930320;29;20043;-77
2023/02/18 04:59:43;;;;;;;3.17;1.48;;;10.30;99.90;;;;;;4946466;29;20051;-77
2023/02/18 05:02:10;;;;;;;1.58;1.45;;;10.30;99.90;;;;;;4945821;28;20047;-77
2023/02/18 05:04:38;;;;;;;1.15;1.15;;;10.30;99.90;;;;;;4913427;29;20597;-77
2023/02/18 05:07:05;;;;;;;2.28;1.55;;;10.30;99.90;;;;;;4946714;29;20059;-77
2023/02/18 05:09:33;;;;;;;1.70;1.60;;;10.20;99.90;;;;;;4944705;29;20059;-77
2023/02/18 05:12:00;;;;;;;1.25;1.15;;;10.30;99.90;;;;;;4944961;29;20067;-77
2023/02/18 05:14:28;;;;;;;1.17;1.10;;;10.20;99.90;;;;;;4946481;29;20062;-77
2023/02/18 05:16:56;;;;;;;1.67;1.58;;;10.20;99.90;;;;;;4930974;29;20051;-77
2023/02/18 05:19:26;;;;;;;1.50;1.27;;;10.20;99.90;;;;;;4930355;29;20071;-76
2023/02/18 05:21:59;;;;;;;1.48;1.38;;;10.10;99.90;;;;;;4913414;29;20047;-77
2023/02/18 05:24:26;;;;;;;1.42;1.33;;;10.10;99.90;;;;;;4944434;29;20047;-77
2023/02/18 05:26:54;;;;;;;1.52;1.42;;;10.20;99.90;;;;;;4915255;29;20055;-76
2023/02/18 05:29:22;;;;;;;1.45;1.35;;;10.20;99.90;;;;;;4934926;28;20043;-77
2023/02/18 05:31:52;;;;;;;1.17;1.10;;;10.20;99.90;;;;;;4943312;29;20055;-77
2023/02/18 05:34:19;;;;;;;1.73;1.63;;;10.20;99.90;;;;;;4950492;28;20051;-77
2023/02/18 05:36:48;;;;;;;1.60;1.50;;;10.20;99.90;;;;;;4951362;29;20035;-77
2023/02/18 05:39:16;;;;;;;1.58;1.38;;;10.20;99.90;;;;;;4948253;29;20263;-76
2023/02/18 05:41:43;;;;;;;0.88;0.88;;;10.10;99.90;;;;;;4931396;28;20070;-77
2023/02/18 05:44:30;;;;;;;1.20;1.20;;;10.20;99.90;;;;;;4949587;29;20047;-76
2023/02/18 05:47:00;;;;;;;0.90;0.90;;;10.20;99.90;;;;;;4927043;29;20050;-77
2023/02/18 05:49:28;;;;;;;1.48;0.70;;;10.10;99.90;;;;;;4933046;29;20035;-77
2023/02/18 05:51:56;;;;;;;1.23;1.13;;;10.10;99.90;;;;;;4949259;29;20141;-76
2023/02/18 05:54:24;;;;;;;2.88;0.85;;;10.10;99.90;;;;;;4933245;28;20055;-77
2023/02/18 05:56:53;;;;;;;1.08;0.98;;;10.10;99.90;;;;;;4947550;28;20415;-76
2023/02/18 05:59:20;;;;;;;1.60;1.50;;;10.10;99.90;;;;;;4955519;28;20043;-76
2023/02/18 06:01:49;;;;;;;1.00;1.00;;;10.10;99.90;;;;;;4924970;29;20400;-76
2023/02/18 06:04:16;;;;;;;1.25;1.15;;;10.10;99.90;;;;;;4947994;28;20054;-77
2023/02/18 06:06:44;;;;;;;1.88;1.27;;;10.20;99.90;;;;;;4933388;29;20047;-77
2023/02/18 06:09:12;;;;;;;2.20;1.05;;;10.20;99.90;;;;;;4946264;28;20078;-77
2023/02/18 06:11:39;;;;;;;0.63;0.63;;;10.20;99.90;;;;;;4938829;29;20043;-77
2023/02/18 06:14:08;;;;;;;0.75;0.75;;;10.20;99.90;;;;;;4948052;28;20043;-76
2023/02/18 06:16:35;;;;;;;4.60;1.70;;;10.30;99.90;;;;;;4950321;28;20047;-76
2023/02/18 06:19:03;;;;;;;0.60;0.60;;;10.30;99.90;;;;;;4943871;29;20257;-76
2023/02/18 06:21:31;;;;;;;0.60;0.60;;;10.20;99.90;;;;;;4950523;29;20042;-76
2023/02/18 06:23:58;;;;;;;0.60;0.60;;;10.20;99.90;;;;;;4933320;29;20416;-76
2023/02/18 06:26:26;;;;;;;0.60;0.60;;;10.30;99.90;;;;;;4931556;29;20047;-76
2023/02/18 06:28:53;;;;;;;0.85;0.85;;;10.40;99.90;;;;;;4933231;29;20061;-77
2023/02/18 06:31:22;;;;;;;1.00;0.93;;;10.40;99.90;;;;;;4933121;29;20436;-77
2023/02/18 06:33:50;;;;;;;0.73;0.73;;;10.40;99.90;;;;;;4948516;28;20040;-76
2023/02/18 06:36:20;;;;;;;0.70;0.70;;;10.30;99.90;;;;;;4949292;29;20061;-76
2023/02/18 06:38:48;;;;;;;2.90;1.15;;;10.40;99.90;;;;;;4947490;29;20056;-76
2023/02/18 06:41:16;;;;;;;0.70;0.70;;;10.50;99.90;;;;;;4947186;28;20097;-76
2023/02/18 06:43:43;;;;;;;0.90;0.90;;;10.40;99.90;;;;;;4932769;29;20052;-76
2023/02/18 06:46:14;;;;;;;1.83;1.73;;;10.40;99.90;;;;;;4939227;28;20257;-77
2023/02/18 06:48:42;;;;;;;0.93;0.93;;;10.40;99.90;;;;;;4947578;28;20059;-76
2023/02/18 06:51:09;;;;;;;0.70;0.70;;;10.50;99.90;;;;;;4949868;29;20048;-76
2023/02/18 06:53:37;;;;;;;0.75;0.75;;;10.50;99.90;;;;;;4931486;29;20039;-77
2023/02/18 06:56:05;;;;;;;0.90;0.90;;;10.50;99.90;;;;;;4932451;29;20051;-77
2023/02/18 06:58:33;;;;;;;0.80;0.80;;;10.60;99.90;;;;;;4930138;29;20448;-77
2023/02/18 07:01:01;;;;;;;1.20;1.00;;;10.50;99.90;;;;;;4946970;29;20051;-77
2023/02/18 07:03:28;;;;;;;1.10;1.10;;;10.50;99.90;;;;;;4901071;29;20047;-76
2023/02/18 07:05:56;;;;;;;1.48;0.80;;;10.60;99.90;;;;;;4949123;28;20086;-77
2023/02/18 07:08:23;;;;;;;0.80;0.70;;;10.60;99.90;;;;;;4945151;29;20044;-77
2023/02/18 07:10:51;;;;;;;0.70;0.70;;;10.60;99.90;;;;;;4948000;28;20051;-77
2023/02/18 07:13:19;;;;;;;0.45;0.45;;;10.70;99.90;;;;;;4947885;28;20043;-76
2023/02/18 07:15:46;;;;;;;0.50;0.50;;;10.60;99.90;;;;;;4949699;29;20063;-77
2023/02/18 07:18:13;;;;;;;1.63;0.70;;;10.70;99.90;;;;;;4948890;28;20786;-76
2023/02/18 07:20:41;;;;;;;0.50;0.50;;;10.70;99.90;;;;;;4900728;28;20440;-76
2023/02/18 07:23:10;;;;;;;0.60;0.60;;;10.60;99.90;;;;;;4915071;29;20051;-77
2023/02/18 07:25:37;;;;;;;1.15;0.70;;;10.70;99.90;;;;;;4946823;29;20039;-77
2023/02/18 07:28:05;;;;;;;0.60;0.60;;;10.80;99.90;;;;;;4930743;29;20047;-77
2023/02/18 07:30:33;;;;;;;1.33;0.80;;;10.70;99.90;;;;;;4931048;29;20054;-76
2023/02/18 07:33:00;;;;;;;0.60;0.60;;;10.70;99.90;;;;;;4945960;29;20043;-76
2023/02/18 07:35:30;;;;;;;0.70;0.70;;;10.70;99.90;;;;;;4943598;29;20055;-77
2023/02/18 07:37:57;;;;;;;0.60;0.60;;;10.70;99.90;;;;;;4930684;28;20055;-77
2023/02/18 07:40:25;;;;;;;1.15;0.77;;;10.80;99.90;;;;;;4944682;28;20651;-75
2023/02/18 07:42:54;;;;;;;12.00;1.13;;;10.80;99.90;;;;;;4947312;29;20423;-76
2023/02/18 07:45:21;;;;;;;0.63;0.63;;;10.80;99.90;;;;;;4945170;28;20123;-76
2023/02/18 07:47:49;;;;;;;0.50;0.50;;;11.00;99.90;;;;;;4945377;29;20044;-76
2023/02/18 07:50:17;;;;;;;0.70;0.70;;;11.00;99.90;;;;;;4946509;28;20058;-76
2023/02/18 07:52:45;;;;;;;1.02;0.98;;;11.10;99.90;;;;;;4944811;28;20054;-76
2023/02/18 07:55:12;;;;;;;0.60;0.60;;;11.10;99.90;;;;;;4952867;28;20054;-76
2023/02/18 07:57:56;;;;;;;0.60;0.60;;;11.10;99.90;;;;;;4939358;28;20047;-76
2023/02/18 08:00:23;;;;;;;0.60;0.60;;;11.00;99.90;;;;;;4945372;28;20055;-77
2023/02/18 08:02:51;;;;;;;0.70;0.70;;;11.00;99.90;;;;;;4915617;29;20059;-76
2023/02/18 08:05:18;;;;;;;0.60;0.60;;;11.00;99.90;;;;;;4952194;28;20057;-76
2023/02/18 08:07:46;;;;;;;1.35;0.60;;;11.00;99.90;;;;;;4942013;28;20060;-76
2023/02/18 08:10:14;;;;;;;0.55;0.55;;;11.10;99.90;;;;;;4930863;29;20063;-76
2023/02/18 08:12:41;;;;;;;0.60;0.60;;;11.10;99.90;;;;;;4944656;29;20059;-76
2023/02/18 08:15:09;;;;;;;0.57;0.57;;;11.10;99.90;;;;;;4947439;29;20055;-77
2023/02/18 08:17:37;;;;;;;1.15;1.05;;;11.10;99.90;;;;;;4946225;28;20055;-77
2023/02/18 08:20:05;;;;;;;0.55;0.40;;;11.10;99.90;;;;;;4932292;29;20047;-76
2023/02/18 08:22:33;;;;;;;0.57;0.57;;;11.10;99.90;;;;;;4927489;29;20063;-75
2023/02/18 08:25:00;;;;;;;0.70;0.70;;;11.10;99.90;;;;;;4943650;28;20407;-77
2023/02/18 08:27:28;;;;;;;1.25;0.93;;;11.10;99.90;;;;;;4915726;29;20058;-76
2023/02/18 08:29:56;;;;;;;0.77;0.75;;;11.00;99.90;;;;;;4946453;29;20043;-76
2023/02/18 08:32:27;;;;;;;0.60;0.60;;;10.90;99.90;;;;;;4938953;28;20060;-77
2023/02/18 08:34:55;;;;;;;0.70;0.70;;;10.90;99.90;;;;;;4942349;29;20054;-76
2023/02/18 08:37:23;;;;;;;0.70;0.70;;;10.80;99.90;;;;;;4925804;28;20051;-75
2023/02/18 08:39:51;;;;;;;0.73;0.60;;;10.80;99.90;;;;;;4933276;28;20217;-76
2023/02/18 08:42:19;;;;;;;0.55;0.55;;;10.80;99.90;;;;;;4941294;28;20732;-77
2023/02/18 08:44:47;;;;;;;2.70;0.93;;;10.90;99.90;;;;;;4941713;28;20663;-76
2023/02/18 08:47:15;;;;;;;0.90;0.90;;;10.90;99.90;;;;;;4932000;28;20043;-76
2023/02/18 08:50:03;;;;;;;0.70;0.70;;;10.80;99.90;;;;;;4947264;28;20047;-77
2023/02/18 08:52:31;;;;;;;0.98;0.90;;;10.90;99.90;;;;;;4944109;28;20052;-76
2023/02/18 08:54:58;;;;;;;0.50;0.50;;;10.80;99.90;;;;;;4947331;28;20051;-78
2023/02/18 08:57:27;;;;;;;0.93;0.77;;;10.90;99.90;;;;;;4927696;28;20047;-77
2023/02/18 08:59:55;;;;;;;0.90;0.90;;;10.90;99.90;;;;;;4945808;28;20043;-78
2023/02/18 09:02:23;;;;;;;0.75;0.70;;;11.00;99.90;;;;;;4948068;28;20054;-76
2023/02/18 09:04:51;;;;;;;1.63;1.10;;;11.10;99.90;;;;;;4942456;28;20043;-76
2023/02/18 09:07:19;;;;;;;1.10;1.10;;;11.10;99.90;;;;;;4926774;29;20059;-77
2023/02/18 09:09:46;;;;;;;0.57;0.57;;;11.20;99.90;;;;;;4929077;28;20062;-76
2023/02/18 09:12:14;;;;;;;1.10;1.10;;;11.20;99.90;;;;;;4952089;28;20043;-76
2023/02/18 09:14:42;;;;;;;0.82;0.82;;;11.10;99.90;;;;;;4946793;29;20051;-76
2023/02/18 09:17:09;;;;;;;0.68;0.68;;;11.20;99.90;;;;;;4947898;28;20050;-77
2023/02/18 09:19:37;;;;;;;1.95;0.90;;;11.30;99.90;;;;;;4949124;29;20050;-77
2023/02/18 09:22:05;;;;;;;15.63;1.13;;;11.30;99.90;;;;;;4948935;28;20047;-77
2023/02/18 09:24:37;;;;;;;0.60;0.60;;;11.40;99.90;;;;;;4933114;28;20086;-77
2023/02/18 09:27:05;;;;;;;1.00;0.90;;;11.50;99.90;;;;;;4948147;29;20066;-77
2023/02/18 09:29:39;;;;;;;0.68;0.68;;;11.50;99.90;;;;;;4947220;29;20377;-77
2023/02/18 09:32:08;;;;;;;0.60;0.60;;;11.60;99.90;;;;;;4947225;28;20047;-77
2023/02/18 09:34:36;;;;;;;0.70;0.70;;;11.50;99.90;;;;;;4953677;28;20064;-77
2023/02/18 09:37:04;;;;;;;0.65;0.65;;;11.50;99.90;;;;;;4931199;29;20047;-77
2023/02/18 09:39:32;;;;;;;1.17;1.08;;;11.40;99.90;;;;;;4953317;28;20055;-76
2023/02/18 09:42:04;;;;;;;0.75;0.75;;;11.40;99.90;;;;;;4913252;29;20048;-76
2023/02/18 09:44:41;;;;;;;1.33;0.95;;;11.50;99.90;;;;;;4954169;28;20058;-76
2023/02/18 09:47:10;;;;;;;1.13;1.13;;;11.50;99.90;;;;;;4916307;29;20051;-77
2023/02/18 09:49:43;;;;;;;0.80;0.80;;;11.50;99.90;;;;;;4930811;29;20043;-77
2023/02/18 09:52:30;;;;;;;1.02;0.98;;;11.60;99.90;;;;;;4932014;29;20058;-78
2023/02/18 09:55:26;;;;;;;0.97;0.80;;;11.70;99.90;;;;;;4912073;29;20058;-76
2023/02/18 09:57:58;;;;;;;2.30;1.10;;;11.70;99.90;;;;;;4932402;29;20047;-77
2023/02/18 10:00:41;;;;;;;1.15;0.95;;;11.90;99.90;;;;;;4932622;28;20261;-77
2023/02/18 10:03:20;;;;;;;1.60;1.13;;;11.70;99.90;;;;;;4956042;28;20055;-76
2023/02/18 10:05:58;;;;;;;1.33;1.23;;;11.60;99.90;;;;;;4951725;28;20058;-77
2023/02/18 10:08:31;;;;;;;1.13;0.88;;;11.80;99.90;;;;;;4946025;29;20055;-77
2023/02/18 10:10:59;;;;;;;0.70;0.70;;;11.80;99.90;;;;;;4922387;29;20062;-78
2023/02/18 10:13:32;;;;;;;3.20;1.40;;;12.10;99.90;;;;;;4930183;29;20059;-77
2023/02/18 10:16:02;;;;;;;3.75;1.30;;;12.20;99.90;;;;;;4937932;29;20056;-76
2023/02/18 10:18:31;;;;;;;1.25;0.88;;;12.20;99.90;;;;;;4940696;28;20051;-77
2023/02/18 10:21:11;;;;;;;1.08;1.02;;;12.10;99.90;;;;;;4933964;29;20395;-77
2023/02/18 10:23:42;;;;;;;0.88;0.88;;;12.10;99.90;;;;;;4946179;29;20050;-77
2023/02/18 10:26:15;;;;;;;1.48;0.95;;;12.20;99.90;;;;;;4958658;28;20054;-77
2023/02/18 10:28:44;;;;;;;1.25;1.17;;;12.20;99.90;;;;;;4936884;29;20067;-77
2023/02/18 10:31:19;;;;;;;0.70;0.70;;;12.20;99.90;;;;;;4938204;29;20051;-77
2023/02/18 10:33:47;;;;;;;1.85;0.93;;;12.30;99.90;;;;;;4937866;29;20059;-77
2023/02/18 10:36:25;;;;;;;0.70;0.70;;;12.30;99.90;;;;;;4940920;29;20051;-78
2023/02/18 10:39:31;;;;;;;1.27;0.95;;;12.30;99.90;;;;;;4935529;29;20047;-78
2023/02/18 10:42:18;;;;;;;1.40;1.30;;;12.30;99.90;;;;;;4937305;29;20044;-77
2023/02/18 10:45:11;;;;;;;1.17;1.08;;;12.30;99.90;;;;;;4952405;28;20045;-77
2023/02/18 10:47:47;;;;;;;1.73;1.08;;;12.20;99.90;;;;;;4953608;29;20051;-78
2023/02/18 10:54:57;;;;;;;0.82;0.80;;;12.30;99.90;;;;;;4939385;29;20027;-77
2023/02/18 10:57:26;;;;;;;1.23;1.13;;;12.40;99.90;;;;;;4938509;29;20047;-76
2023/02/18 10:59:56;;;;;;;2.95;0.85;;;12.40;99.90;;;;;;4953680;29;20055;-77
2023/02/18 11:02:29;;;;;;;1.27;1.17;;;12.50;99.90;;;;;;4936955;29;20035;-77
2023/02/18 11:05:00;;;;;;;2.35;1.35;;;12.60;99.90;;;;;;4936700;29;20071;-78
2023/02/18 11:07:33;;;;;;;0.80;0.80;;;12.70;99.90;;;;;;4920482;29;20052;-77
2023/02/18 11:10:18;;;;;;;2.60;0.85;;;12.80;99.90;;;;;;4936551;29;20048;-77
2023/02/18 11:12:54;;;;;;;0.82;0.60;;;13.10;99.90;;;;;;4920282;29;20078;-77
2023/02/18 11:15:24;;;;;;;0.40;0.40;;;13.20;99.90;;;;;;4945116;29;20039;-77
2023/02/18 11:17:54;;;;;;;0.75;0.60;;;13.40;99.90;;;;;;4939345;29;20054;-77
2023/02/18 11:20:30;;;;;;;0.70;0.65;;;13.50;99.90;;;;;;4955921;29;20043;-78
2023/02/18 11:23:06;;;;;;;0.70;0.63;;;13.60;99.90;;;;;;4917401;29;20055;-77
2023/02/18 11:25:38;;;;;;;0.68;0.68;;;13.60;99.90;;;;;;4955960;29;20043;-77
2023/02/18 11:28:16;;;;;;;1.75;1.65;;;13.50;99.90;;;;;;4955839;28;20051;-77
2023/02/18 11:30:53;;;;;;;1.02;0.93;;;13.60;99.90;;;;;;4927571;29;20052;-77
2023/02/18 11:33:33;;;;;;;0.80;0.80;;;13.60;99.90;;;;;;4929545;29;20039;-77
2023/02/18 11:36:15;;;;;;;0.40;0.40;;;13.60;99.90;;;;;;4971749;28;20039;-78
2023/02/18 11:38:53;;;;;;;0.90;0.80;;;14.00;99.90;;;;;;4947073;28;20044;-77
2023/02/18 11:42:03;;;;;;;1.07;0.87;;;13.90;99.90;;;;;;4962447;28;20045;-78
2023/02/18 11:44:41;;;;;;;0.88;0.63;;;14.10;99.90;;;;;;4948635;28;20275;-78
2023/02/18 11:47:11;;;;;;;1.23;1.00;;;14.00;99.90;;;;;;4975607;28;20047;-77
2023/02/18 11:49:41;;;;;;;1.92;1.08;;;14.00;99.90;;;;;;4972716;28;20042;-77
2023/02/18 11:52:22;;;;;;;0.75;0.70;;;14.10;99.90;;;;;;4978092;28;20121;-77
2023/02/18 11:55:29;;;;;;;0.70;0.70;;;13.90;99.90;;;;;;4962746;28;20046;-77
2023/02/18 11:58:09;;;;;;;0.93;0.93;;;13.90;99.90;;;;;;4967607;28;20062;-77
2023/02/18 12:00:48;;;;;;;1.50;0.80;;;14.10;99.90;;;;;;4933220;28;20051;-76
2023/02/18 12:03:22;;;;;;;1.95;0.98;;;13.90;99.90;;;;;;4968232;28;20039;-78
2023/02/18 12:05:51;;;;;;;0.77;0.77;;;13.90;99.90;;;;;;4973820;28;20043;-77
2023/02/18 12:08:25;;;;;;;0.90;0.88;;;14.00;99.90;;;;;;4975143;28;20035;-77
2023/02/18 12:11:00;;;;;;;0.70;0.70;;;13.90;99.90;;;;;;4956502;28;20051;-77
2023/02/18 12:13:41;;;;;;;0.50;0.50;;;14.00;99.90;;;;;;4974708;28;20253;-78
2023/02/18 12:16:12;;;;;;;;;;;14.00;99.90;;;;;;4966549;28;20188;-77
2023/02/18 12:18:56;;;;;;;0.80;0.80;;;14.10;99.90;;;;;;4948290;28;19927;-78
2023/02/18 12:21:29;;;;;;;1.13;0.90;;;14.00;99.90;;;;;;4975036;28;20041;-77
2023/02/18 12:24:23;;;;;;;0.98;0.90;;;14.10;99.90;;;;;;4958394;28;20170;-77
2023/02/18 12:27:04;;;;;;;1.23;1.13;;;14.00;99.90;;;;;;4978805;28;20043;-77
2023/02/18 12:30:03;;;;;;;1.10;0.88;;;14.10;99.90;;;;;;4974253;28;20065;-77
2023/02/18 12:32:48;;;;;;;1.77;0.93;;;14.10;99.90;;;;;;4973471;28;20035;-77
2023/02/18 12:36:02;;;;;;;0.90;0.73;;;14.00;99.90;;;;;;4974534;28;20051;-77
2023/02/18 12:38:32;;;;;;;0.80;0.80;;;14.10;99.90;;;;;;4971806;28;20035;-76
2023/02/18 12:41:35;;;;;;;1.05;0.50;;;14.10;99.90;;;;;;4956441;28;20069;-77
2023/02/18 12:44:09;;;;;;;1.65;0.93;;;14.00;99.90;;;;;;4961844;28;20049;-77
2023/02/18 12:47:02;;;;;;;3.88;0.90;;;14.00;99.90;;;;;;4958407;28;20062;-77
2023/02/18 12:50:10;;;;;;;0.82;0.82;;;14.00;99.90;;;;;;4942831;29;20051;-77
2023/02/18 12:53:28;;;;;;;0.82;0.57;;;14.00;99.90;;;;;;4924839;29;20070;-76
2023/02/18 12:56:25;;;;;;;2.38;0.70;;;14.10;99.90;;;;;;4912649;29;20395;-77
2023/02/18 12:59:30;;;;;;;8.02;1.38;;;14.10;99.90;;;;;;4913120;29;20063;-77
2023/02/18 13:02:07;;;;;;;0.88;0.60;;;13.90;99.90;;;;;;4934231;29;20435;-77
2023/02/18 13:04:59;;;;;;;1.95;0.70;;;14.00;99.90;;;;;;4946260;28;20074;-77
2023/02/18 13:08:06;;;;;;;0.50;0.50;;;14.00;99.90;;;;;;4931093;29;20195;-77
2023/02/18 13:10:50;;;;;;;1.02;0.90;;;14.00;99.90;;;;;;4924435;29;20051;-77
2023/02/18 13:13:25;;;;;;;0.50;0.50;;;14.10;99.90;;;;;;4929258;28;20187;-77
2023/02/18 13:16:00;;;;;;;0.90;0.90;;;14.10;99.90;;;;;;4952958;28;20051;-77
2023/02/18 13:18:33;;;;;;;0.93;0.93;;;14.10;99.90;;;;;;4946263;29;20071;-77
2023/02/18 13:21:07;;;;;;;1.10;0.95;;;14.00;99.90;;;;;;4945798;28;20047;-77
2023/02/18 13:23:39;;;;;;;1.10;0.88;;;14.00;99.90;;;;;;4928757;29;20047;-77
2023/02/18 13:26:12;;;;;;;0.90;0.90;;;14.00;99.90;;;;;;4933278;29;20046;-78